Estación Meteorológica Peña el Pijo (Robertgarden) [ 12/14/19 08:41:11 CET ]

Fecha Hora Presion(HPa) Temp (°C) Humedad % Rocio (°C) Viento ( m/s) Direccion Lluvia 1Hora(mm) Lluvia 24H(mm) LLuvia Total(mm)
2019-Nov-22 01:01:40 997.500 6.1 88 4.3       1.55 34.18
2019-Nov-22 02:02:02 997.000 6.3 88 4.5       1.03 34.18
2019-Nov-22 03:10:12 996.600 6.2 88 4.4       0.51 34.18
2019-Nov-22 04:07:05 996.500 6.1 89 4.4     0.51 1.03 34.70
2019-Nov-22 05:01:50 996.100 6.3 89 4.6       1.03 34.70
2019-Nov-22 06:01:38 995.500 6.1 89 4.4       1.03 34.70
2019-Nov-22 07:01:42 995.300 6.2 90 4.7       1.03 34.70
2019-Nov-22 08:01:54 995.200 6.4 90 4.9       1.03 34.70
2019-Nov-22 09:01:42 995.400 6.5 90 5.0       1.03 34.70
2019-Nov-22 10:01:37 994.800 7.6 90 6.1       1.03 34.70
2019-Nov-22 11:01:53 994.000 8.9 92 7.7       1.03 34.70
2019-Nov-22 12:01:53 992.900 11.3 89 9.5 1.7 NW   1.03 34.70
2019-Nov-22 13:01:46 991.400 14.0 74 9.4 1.7 NW   1.03 34.70
2019-Nov-22 14:01:54 990.500 13.1 70 7.8       1.03 34.70
2019-Nov-22 15:01:48 989.200 11.8 78 8.1 1.3 NNE   1.03 34.70
2019-Nov-22 16:01:31 988.500 11.3 77 7.4       1.03 34.70
2019-Nov-22 17:01:37 988.000 10.2 83 7.4     1.03 2.07 35.74
2019-Nov-22 18:01:55 988.300 9.4 84 6.8     1.03 3.10 36.77
2019-Nov-22 19:01:56 987.300 9.1 87 7.0       3.10 36.77
2019-Nov-22 20:01:51 987.400 10.1 87 8.0       2.59 36.77
2019-Nov-22 21:01:36 987.900 10.2 78 6.5       2.59 36.77
2019-Nov-22 22:01:39 988.100 9.2 76 5.1 0.8 NW   2.59 36.77
2019-Nov-22 23:01:46 987.700 8.9 75 4.7 2.7 N   2.59 36.77

Temperatura Máxima:14°    Temperatura Mínima:
Presión Máxima:997.500 Hpa    Presión Mínima:987.300 Hpa


Volver